Time;durP1;ratioP1;P1;durP2;ratioP2;P2;SDS_P1;SDS_P2;PMS_P1;PMS_P2;Temp;Humidity;BMP_temperature;BMP_pressure;BME280_temperature;BME280_humidity;BME280_pressure;Samples;Min_cycle;Max_cycle;Signal;HPM_P1;HPM_P2
2023/11/26 00:00:23;;;;;;;4.80;2.50;;;;;;;-2.37;74.88;93804.64;106694;1272;22636;-78
2023/11/26 00:03:11;;;;;;;4.20;2.70;;;;;;;-2.34;74.76;93805.52;106613;1275;24219;-78
2023/11/26 00:05:40;;;;;;;4.30;2.50;;;;;;;-2.36;74.26;93806.36;106706;1275;22607;-78
2023/11/26 00:08:08;;;;;;;2.70;2.00;;;;;;;-2.42;73.82;93810.13;106681;1275;24477;-78
2023/11/26 00:10:36;;;;;;;5.10;2.90;;;;;;;-2.45;74.22;93803.42;106667;1275;25422;-78
2023/11/26 00:13:05;;;;;;;6.10;3.10;;;;;;;-2.47;73.89;93808.92;106666;1275;24258;-78
2023/11/26 00:15:33;;;;;;;4.80;2.80;;;;;;;-2.52;73.51;93812.36;106622;1275;22544;-78
2023/11/26 00:18:01;;;;;;;2.90;2.10;;;;;;;-2.57;73.89;93818.71;106635;1275;22541;-78
2023/11/26 00:20:29;;;;;;;3.20;2.00;;;;;;;-2.64;73.94;93823.52;106628;1275;25373;-78
2023/11/26 00:22:58;;;;;;;5.70;2.20;;;;;;;-2.71;73.54;93824.52;106715;1275;22539;-78
2023/11/26 00:25:26;;;;;;;4.40;2.50;;;;;;;-2.75;73.70;93829.67;106623;1275;25232;-78
2023/11/26 00:27:54;;;;;;;3.20;2.50;;;;;;;-2.79;73.96;93821.75;106719;1275;24305;-78
2023/11/26 00:30:23;;;;;;;3.90;1.90;;;;;;;-2.83;74.01;93823.27;106662;1275;24279;-78
2023/11/26 00:32:51;;;;;;;4.20;2.70;;;;;;;-2.89;73.72;93819.47;106668;1275;24222;-78
2023/11/26 00:35:21;;;;;;;4.80;2.80;;;;;;;-2.94;74.03;93821.00;106612;1275;22519;-78
2023/11/26 00:37:51;;;;;;;7.50;3.00;;;;;;;-2.98;74.07;93822.71;106678;1275;24245;-78
2023/11/26 00:40:24;;;;;;;6.00;3.30;;;;;;;-2.99;74.18;93819.25;106676;1275;25102;-78
2023/11/26 00:42:53;;;;;;;4.70;2.60;;;;;;;-3.00;74.14;93823.73;106820;1275;22615;-78
2023/11/26 00:45:21;;;;;;;4.50;2.90;;;;;;;-3.04;74.11;93822.15;106665;1275;22520;-78
2023/11/26 00:47:50;;;;;;;7.20;3.00;;;;;;;-3.07;74.34;93820.09;106725;1275;24461;-78
2023/11/26 00:50:18;;;;;;;4.10;2.30;;;;;;;-3.11;74.13;93820.41;106772;1275;22528;-78
2023/11/26 00:52:47;;;;;;;7.00;2.70;;;;;;;-3.13;74.17;93826.94;106709;1275;22608;-77
2023/11/26 00:55:15;;;;;;;5.50;3.20;;;;;;;-3.15;74.74;93823.67;106581;1276;25431;-77
2023/11/26 00:57:43;;;;;;;4.80;3.00;;;;;;;-3.15;74.56;93828.30;106635;1275;22637;-77
2023/11/26 01:00:12;;;;;;;5.90;3.00;;;;;;;-3.13;74.66;93831.23;106716;1275;25419;-77
2023/11/26 01:02:41;;;;;;;4.80;2.80;;;;;;;-3.11;74.42;93834.33;106732;1275;24375;-78
2023/11/26 01:05:10;;;;;;;4.20;2.30;;;;;;;-3.09;74.36;93827.64;106670;1275;24397;-78
2023/11/26 01:07:38;;;;;;;3.30;2.50;;;;;;;-3.09;74.11;93827.64;106632;1275;25806;-78
2023/11/26 01:10:07;;;;;;;4.80;3.20;;;;;;;-3.12;74.15;93825.73;106647;1275;24334;-78
2023/11/26 01:12:35;;;;;;;5.50;3.10;;;;;;;-3.09;74.26;93826.27;106783;1275;23158;-78
2023/11/26 01:15:06;;;;;;;4.40;2.60;;;;;;;-3.08;74.23;93822.66;106630;1275;24288;-78
2023/11/26 01:17:37;;;;;;;4.10;2.50;;;;;;;-3.10;74.13;93818.69;106648;1275;22636;-78
2023/11/26 01:20:08;;;;;;;6.50;3.00;;;;;;;-3.16;73.98;93817.64;106658;1275;22524;-78
2023/11/26 01:22:38;;;;;;;4.40;2.60;;;;;;;-3.20;73.93;93817.45;106708;1275;22523;-78
2023/11/26 01:25:06;;;;;;;4.10;2.60;;;;;;;-3.21;73.86;93821.39;106667;1275;25243;-78
2023/11/26 01:27:35;;;;;;;5.10;2.40;;;;;;;-3.24;73.94;93823.11;106590;1275;24242;-78
2023/11/26 01:30:05;;;;;;;4.30;2.60;;;;;;;-3.26;74.00;93829.63;106664;1275;22531;-78
2023/11/26 01:32:35;;;;;;;4.40;2.90;;;;;;;-3.28;73.84;93834.94;106599;1275;24042;-78
2023/11/26 01:35:04;;;;;;;5.30;2.90;;;;;;;-3.29;73.81;93838.20;106638;1263;22655;-78
2023/11/26 01:37:33;;;;;;;5.00;2.80;;;;;;;-3.30;73.83;93846.45;106752;1275;22534;-78
2023/11/26 01:40:03;;;;;;;4.10;2.80;;;;;;;-3.31;73.74;93850.73;106729;1275;22529;-78
2023/11/26 01:42:31;;;;;;;4.70;2.60;;;;;;;-3.34;73.69;93849.35;106632;1275;25280;-78
2023/11/26 01:44:59;;;;;;;4.60;2.70;;;;;;;-3.36;73.87;93850.73;106837;1275;24257;-78
2023/11/26 01:47:28;;;;;;;6.40;3.10;;;;;;;-3.37;73.88;93856.02;106671;1275;22642;-78
2023/11/26 01:49:56;;;;;;;3.70;2.40;;;;;;;-3.38;73.84;93858.61;106618;1275;24035;-78
2023/11/26 01:52:26;;;;;;;5.60;2.70;;;;;;;-3.38;74.05;93854.81;106523;1271;24268;-78
2023/11/26 01:54:54;;;;;;;4.10;3.10;;;;;;;-3.38;74.03;93861.18;106500;1276;22540;-78
2023/11/26 01:57:23;;;;;;;3.80;2.40;;;;;;;-3.35;74.13;93862.06;106626;1276;22587;-78
2023/11/26 01:59:51;;;;;;;4.80;2.60;;;;;;;-3.32;74.05;93866.55;106757;1276;24272;-78
2023/11/26 02:02:19;;;;;;;4.80;2.40;;;;;;;-3.29;74.12;93865.89;106642;1276;22530;-78
2023/11/26 02:04:48;;;;;;;2.90;2.20;;;;;;;-3.27;74.06;93871.74;106711;1276;22650;-78
2023/11/26 02:07:17;;;;;;;4.40;2.40;;;;;;;-3.24;74.21;93877.10;106641;1276;24468;-78
2023/11/26 02:09:47;;;;;;;4.10;2.10;;;;;;;-3.21;74.05;93875.91;106766;1276;22549;-78
2023/11/26 02:12:16;;;;;;;5.10;2.70;;;;;;;-3.19;73.97;93873.51;107011;1276;22526;-78
2023/11/26 02:14:48;;;;;;;3.90;2.20;;;;;;;-3.18;74.14;93877.12;106634;1269;24324;-78
2023/11/26 02:17:16;;;;;;;3.90;1.90;;;;;;;-3.19;74.11;93870.75;106594;1276;24333;-78
2023/11/26 02:19:46;;;;;;;3.60;2.10;;;;;;;-3.22;73.74;93869.88;106483;1276;24247;-78
2023/11/26 02:22:14;;;;;;;4.10;2.30;;;;;;;-3.21;73.94;93875.21;106412;1276;22556;-78
2023/11/26 02:24:46;;;;;;;3.30;2.00;;;;;;;-3.22;73.33;93876.76;106629;1276;24199;-78
2023/11/26 02:27:14;;;;;;;2.90;1.90;;;;;;;-3.22;73.23;93875.39;106742;1276;22524;-78
2023/11/26 02:29:42;;;;;;;3.30;2.00;;;;;;;-3.20;73.45;93875.57;106615;1266;24253;-78
2023/11/26 02:32:11;;;;;;;5.80;2.40;;;;;;;-3.15;73.40;93874.23;106483;1276;25415;-78
2023/11/26 02:34:39;;;;;;;4.20;2.50;;;;;;;-3.10;73.39;93877.00;106670;1276;24272;-78
2023/11/26 02:37:07;;;;;;;3.50;2.10;;;;;;;-3.04;73.33;93881.34;106594;1276;25435;-78
2023/11/26 02:39:35;;;;;;;4.50;2.60;;;;;;;-3.00;73.19;93882.02;106628;1276;25304;-78
2023/11/26 02:42:04;;;;;;;3.40;2.10;;;;;;;-2.97;72.56;93884.63;106638;1276;22538;-78
2023/11/26 02:44:32;;;;;;;4.00;2.30;;;;;;;-2.99;72.72;93887.03;106632;1276;24221;-78
2023/11/26 02:47:01;;;;;;;4.20;2.50;;;;;;;-2.96;73.01;93892.39;106820;1276;22652;-78
2023/11/26 02:49:29;;;;;;;5.40;2.30;;;;;;;-2.93;72.49;93898.07;106869;1275;25378;-78
2023/11/26 02:51:57;;;;;;;3.70;2.40;;;;;;;-2.94;72.23;93896.88;106608;1275;22527;-78
2023/11/26 02:54:25;;;;;;;4.60;2.60;;;;;;;-2.93;72.54;93895.48;106737;1275;22579;-78
2023/11/26 02:56:54;;;;;;;4.20;2.60;;;;;;;-2.92;72.61;93898.77;106763;1275;22543;-78
2023/11/26 02:59:22;;;;;;;4.10;2.50;;;;;;;-2.91;72.68;93904.96;106685;1275;22553;-78
2023/11/26 03:01:55;;;;;;;4.20;2.20;;;;;;;-2.92;72.25;93907.89;106569;1270;22525;-78
2023/11/26 03:04:24;;;;;;;3.00;2.10;;;;;;;-3.00;72.12;93904.06;106599;1275;25246;-78
2023/11/26 03:06:52;;;;;;;4.70;2.20;;;;;;;-3.09;71.87;93907.09;106603;1275;23941;-78
2023/11/26 03:14:51;;;;;;;5.50;2.10;;;;;;;-3.32;72.37;93911.95;106739;1275;24329;-78
2023/11/26 03:17:20;;;;;;;5.00;2.50;;;;;;;-3.43;72.81;93911.34;106668;1275;23016;-78
2023/11/26 03:19:49;;;;;;;4.00;2.20;;;;;;;-3.50;73.18;93918.00;106698;1275;22523;-78
2023/11/26 03:22:17;;;;;;;4.80;3.30;;;;;;;-3.57;73.29;93920.88;106684;1275;22772;-78
2023/11/26 03:24:46;;;;;;;5.20;2.90;;;;;;;-3.60;73.51;93922.56;106858;1275;22601;-78
2023/11/26 03:27:14;;;;;;;5.80;3.00;;;;;;;-3.66;73.87;93926.80;106696;1275;22527;-78
2023/11/26 03:29:42;;;;;;;4.40;2.70;;;;;;;-3.70;73.97;93931.93;106898;1257;22606;-78
2023/11/26 03:32:10;;;;;;;5.30;2.70;;;;;;;-3.74;74.09;93937.23;106763;1275;22528;-78
2023/11/26 03:34:39;;;;;;;5.70;2.90;;;;;;;-3.77;74.05;93937.54;106718;1275;22524;-78
2023/11/26 03:37:09;;;;;;;4.70;2.70;;;;;;;-3.82;74.15;93942.30;106739;1275;25346;-78
2023/11/26 03:39:40;;;;;;;4.80;3.00;;;;;;;-3.84;74.73;93946.74;106713;1275;25354;-78
2023/11/26 03:42:08;;;;;;;6.80;2.90;;;;;;;-3.83;74.79;93946.93;106668;1275;22528;-78
2023/11/26 03:44:54;;;;;;;4.10;2.90;;;;;;;-3.83;75.05;93942.98;107030;1275;23929;-77
2023/11/26 03:47:23;;;;;;;6.40;3.70;;;;;;;-3.80;75.12;93945.41;106879;1275;23031;-78
2023/11/26 03:49:52;;;;;;;5.00;3.10;;;;;;;-3.79;75.14;93943.70;106936;1275;24873;-78
2023/11/26 03:52:21;;;;;;;5.20;3.50;;;;;;;-3.78;75.14;93944.05;106590;1275;25328;-77
2023/11/26 03:54:51;;;;;;;6.80;3.30;;;;;;;-3.77;75.19;93950.41;106786;1275;22727;-78
2023/11/26 03:57:20;;;;;;;8.30;3.80;;;;;;;-3.75;75.27;93950.45;106669;1275;25386;-78
2023/11/26 03:59:48;;;;;;;6.40;3.50;;;;;;;-3.75;75.24;93950.09;106603;1275;25311;-78
2023/11/26 04:02:19;;;;;;;6.60;3.60;;;;;;;-3.75;75.31;93955.08;106694;1275;22540;-78
2023/11/26 04:04:48;;;;;;;9.60;3.80;;;;;;;-3.75;75.41;93959.38;106646;1275;26529;-78
2023/11/26 04:07:16;;;;;;;4.90;3.10;;;;;;;-3.73;75.59;93964.21;106726;1275;24666;-78
2023/11/26 04:09:47;;;;;;;6.80;3.80;;;;;;;-3.72;75.48;93960.26;106738;1275;22925;-78
2023/11/26 04:12:15;;;;;;;4.60;3.00;;;;;;;-3.73;75.45;93964.38;106744;1275;22535;-78
2023/11/26 04:14:57;;;;;;;4.20;2.70;;;;;;;-3.79;75.54;93966.21;106919;1275;24234;-78
2023/11/26 04:17:28;;;;;;;5.10;3.30;;;;;;;-3.82;75.81;93968.92;107000;1275;24082;-78
2023/11/26 04:19:56;;;;;;;6.10;3.10;;;;;;;-3.86;75.83;93974.73;106980;1275;24379;-78
2023/11/26 04:22:27;;;;;;;6.50;3.40;;;;;;;-3.89;76.02;93977.61;106658;1275;22717;-78
2023/11/26 04:24:55;;;;;;;4.90;3.10;;;;;;;-3.92;76.15;93979.83;106807;1275;22564;-78
2023/11/26 04:27:25;;;;;;;5.40;3.20;;;;;;;-3.97;76.28;93983.38;106698;1275;25259;-78
2023/11/26 04:29:54;;;;;;;5.90;3.20;;;;;;;-4.00;76.45;93986.77;106750;1275;24059;-77
2023/11/26 04:32:22;;;;;;;5.60;3.30;;;;;;;-4.00;76.44;93990.39;106768;1275;24228;-78
2023/11/26 04:34:50;;;;;;;7.00;3.10;;;;;;;-4.00;76.51;93990.90;106691;1275;24219;-78
2023/11/26 04:37:18;;;;;;;7.00;3.30;;;;;;;-4.03;76.48;93997.23;106715;1275;22776;-77
2023/11/26 04:39:48;;;;;;;7.20;4.00;;;;;;;-4.03;76.43;94003.75;106705;1275;24254;-78
2023/11/26 04:42:17;;;;;;;7.20;3.80;;;;;;;-4.03;76.48;94001.15;106641;1275;22520;-78
2023/11/26 04:44:45;;;;;;;6.40;3.70;;;;;;;-4.02;76.49;94005.30;106600;1275;22542;-78
2023/11/26 04:47:14;;;;;;;7.80;4.50;;;;;;;-4.01;76.50;94004.45;106739;1275;24041;-78
2023/11/26 04:49:43;;;;;;;7.70;4.10;;;;;;;-3.97;76.42;94014.46;106876;1275;22622;-78
2023/11/26 04:52:11;;;;;;;6.10;4.10;;;;;;;-3.91;76.54;94016.60;106690;1275;22566;-78
2023/11/26 04:54:39;;;;;;;8.00;3.50;;;;;;;-3.84;76.36;94018.38;106752;1253;22532;-78
2023/11/26 04:57:09;;;;;;;5.30;3.70;;;;;;;-3.79;76.39;94022.04;106686;1275;22761;-78
2023/11/26 04:59:37;;;;;;;10.40;4.70;;;;;;;-3.71;76.36;94026.25;106684;1275;25372;-78
2023/11/26 05:02:06;;;;;;;8.60;4.50;;;;;;;-3.62;76.57;94032.01;106707;1275;24226;-78
2023/11/26 05:04:35;;;;;;;8.70;5.10;;;;;;;-3.55;77.09;94030.70;106688;1275;25366;-78
2023/11/26 05:07:04;;;;;;;7.70;5.30;;;;;;;-3.49;76.81;94033.17;106700;1275;24096;-78
2023/11/26 05:09:32;;;;;;;9.10;5.20;;;;;;;-3.42;76.69;94027.56;106714;1275;25078;-78
2023/11/26 05:12:05;;;;;;;7.50;4.70;;;;;;;-3.39;76.42;94024.84;106821;1275;22516;-78
2023/11/26 05:14:33;;;;;;;7.40;4.20;;;;;;;-3.41;76.21;94031.00;106785;1275;24218;-78
2023/11/26 05:17:02;;;;;;;8.40;4.70;;;;;;;-3.43;76.04;94030.45;106647;1275;23146;-78
2023/11/26 05:19:30;;;;;;;9.20;4.40;;;;;;;-3.42;76.03;94034.95;106594;1275;22776;-78
2023/11/26 05:21:58;;;;;;;8.40;4.50;;;;;;;-3.50;75.84;94041.41;106656;1275;24066;-78
2023/11/26 05:24:26;;;;;;;8.30;4.00;;;;;;;-3.56;76.19;94036.36;106569;1276;25675;-78
2023/11/26 05:26:55;;;;;;;8.40;4.40;;;;;;;-3.59;76.44;94035.64;106622;1275;22538;-78
2023/11/26 05:29:23;;;;;;;8.50;4.30;;;;;;;-3.65;76.37;94036.27;106708;1275;22527;-78
2023/11/26 05:31:51;;;;;;;9.30;5.30;;;;;;;-3.69;76.50;94040.19;106751;1275;22527;-78
2023/11/26 05:34:20;;;;;;;8.90;5.10;;;;;;;-3.72;76.37;94043.94;106734;1275;22493;-78
2023/11/26 05:36:49;;;;;;;12.90;5.30;;;;;;;-3.73;76.29;94048.74;106959;1275;25361;-78
2023/11/26 05:39:18;;;;;;;9.50;5.00;;;;;;;-3.85;75.83;94046.71;106666;1275;22935;-78
2023/11/26 05:41:46;;;;;;;10.90;6.10;;;;;;;-3.97;76.35;94054.15;106673;1275;25354;-78
2023/11/26 05:44:14;;;;;;;9.30;4.70;;;;;;;-4.07;76.58;94056.26;106780;1275;22567;-78
2023/11/26 05:46:43;;;;;;;7.90;4.50;;;;;;;-4.10;77.16;94059.48;106718;1275;24487;-78
2023/11/26 05:49:12;;;;;;;7.80;4.40;;;;;;;-4.17;77.22;94064.20;106756;1275;22520;-77
2023/11/26 05:51:40;;;;;;;5.90;4.00;;;;;;;-4.26;76.88;94068.73;106640;1275;22531;-78
2023/11/26 05:54:09;;;;;;;11.20;5.70;;;;;;;-4.28;77.33;94070.05;106681;1275;24269;-78
2023/11/26 05:56:43;;;;;;;12.90;5.70;;;;;;;-4.33;77.57;94074.64;106817;1275;22559;-78
2023/11/26 05:59:11;;;;;;;12.80;6.30;;;;;;;-4.39;77.27;94076.96;106736;1275;22547;-78
2023/11/26 06:01:39;;;;;;;16.10;6.90;;;;;;;-4.39;77.58;94079.88;106581;1275;22520;-78
2023/11/26 06:04:08;;;;;;;13.40;6.40;;;;;;;-4.41;78.26;94083.98;106779;1275;24268;-78
2023/11/26 06:06:36;;;;;;;11.90;6.50;;;;;;;-4.45;78.30;94083.05;106629;1275;25636;-78
2023/11/26 06:09:05;;;;;;;10.00;5.30;;;;;;;-4.50;78.24;94088.82;106976;1275;22520;-78
2023/11/26 06:11:34;;;;;;;8.50;4.70;;;;;;;-4.51;78.66;94092.75;106932;1275;23919;-78
2023/11/26 06:14:02;;;;;;;8.60;4.20;;;;;;;-4.49;78.42;94091.74;106696;1275;22542;-78
2023/11/26 06:16:30;;;;;;;7.10;4.50;;;;;;;-4.49;78.98;94098.27;106710;1275;22537;-78
2023/11/26 06:18:58;;;;;;;6.90;3.20;;;;;;;-4.50;78.76;94104.61;106738;1275;25402;-78
2023/11/26 06:21:27;;;;;;;7.60;4.50;;;;;;;-4.51;78.92;94108.88;106738;1275;25281;-78
2023/11/26 06:23:55;;;;;;;7.90;4.20;;;;;;;-4.52;78.83;94110.59;106688;1275;24370;-78
2023/11/26 06:26:23;;;;;;;8.80;4.60;;;;;;;-4.52;78.82;94111.45;106660;1275;22547;-78
2023/11/26 06:28:51;;;;;;;8.00;5.10;;;;;;;-4.56;78.47;94112.23;106991;1275;24348;-78
2023/11/26 06:31:21;;;;;;;9.20;5.30;;;;;;;-4.55;78.45;94114.33;106745;1275;22615;-78
2023/11/26 06:33:51;;;;;;;11.30;6.30;;;;;;;-4.50;78.75;94108.38;106813;1275;22569;-78
2023/11/26 06:36:21;;;;;;;10.10;6.10;;;;;;;-4.47;78.59;94104.65;106827;1275;25681;-78
2023/11/26 06:38:51;;;;;;;10.90;6.00;;;;;;;-4.40;78.83;94108.70;106727;1275;22564;-78
2023/11/26 06:41:34;;;;;;;11.40;6.50;;;;;;;-4.31;78.87;94110.88;106703;1275;22521;-78
2023/11/26 06:44:02;;;;;;;13.00;6.50;;;;;;;-4.24;79.17;94114.59;106647;1275;22673;-78
2023/11/26 06:46:30;;;;;;;11.80;6.50;;;;;;;-4.18;78.84;94119.64;106758;1275;22528;-78
2023/11/26 06:48:59;;;;;;;9.80;6.50;;;;;;;-4.15;78.86;94123.47;106610;1275;22536;-78
2023/11/26 06:51:27;;;;;;;8.80;5.60;;;;;;;-4.05;79.33;94125.99;106578;1275;22538;-78
2023/11/26 06:53:57;;;;;;;21.10;8.20;;;;;;;-3.93;79.06;94117.05;106590;1261;24223;-78
2023/11/26 06:56:25;;;;;;;15.40;7.30;;;;;;;-3.80;79.04;94117.55;106744;1275;22526;-78
2023/11/26 06:58:53;;;;;;;26.30;15.40;;;;;;;-3.65;78.84;94127.69;106428;1275;406723;-78
2023/11/26 07:01:22;;;;;;;15.20;9.80;;;;;;;-3.55;78.42;94125.59;106791;1275;25267;-78
2023/11/26 07:03:50;;;;;;;11.80;7.00;;;;;;;-3.53;77.99;94123.88;106706;1275;22532;-78
2023/11/26 07:06:18;;;;;;;13.10;8.40;;;;;;;-3.44;77.73;94126.90;106822;1253;22531;-78
2023/11/26 07:08:46;;;;;;;22.50;12.80;;;;;;;-3.33;77.75;94126.84;106688;1275;25246;-78
2023/11/26 07:11:18;;;;;;;22.30;12.60;;;;;;;-3.20;78.00;94130.94;106729;1275;24047;-78
2023/11/26 07:13:47;;;;;;;21.10;11.50;;;;;;;-3.22;76.59;94129.89;106743;1275;24405;-78
2023/11/26 07:16:17;;;;;;;20.10;11.30;;;;;;;-3.21;76.36;94132.64;106721;1275;24271;-78
2023/11/26 07:18:47;;;;;;;23.60;11.70;;;;;;;-3.21;76.40;94136.42;106637;1275;25354;-78
2023/11/26 07:21:15;;;;;;;21.30;12.10;;;;;;;-3.14;76.72;94134.09;106765;1275;25329;-78
2023/11/26 07:23:43;;;;;;;35.00;17.20;;;;;;;-3.09;76.26;94134.65;106721;1275;22524;-78
2023/11/26 07:26:21;;;;;;;13.80;6.60;;;;;;;-3.01;75.54;94143.16;106784;1275;25389;-78
2023/11/26 07:28:50;;;;;;;23.80;10.80;;;;;;;-2.93;73.57;94140.33;106888;1275;22531;-76
2023/11/26 07:31:22;;;;;;;27.40;11.40;;;;;;;-2.81;74.32;94148.16;106669;1275;25428;-78
2023/11/26 07:33:51;;;;;;;46.70;18.90;;;;;;;-2.73;74.34;94149.09;106603;1275;26523;-78
2023/11/26 07:36:24;;;;;;;44.50;19.80;;;;;;;-2.66;74.22;94146.57;106623;1275;26563;-78
2023/11/26 07:38:55;;;;;;;24.40;12.70;;;;;;;-2.60;73.88;94146.11;106750;1275;22527;-77
2023/11/26 07:41:23;;;;;;;26.90;12.10;;;;;;;-2.54;73.86;94149.08;106732;1275;22579;-77
2023/11/26 07:43:54;;;;;;;25.50;12.20;;;;;;;-2.46;74.03;94149.82;106715;1275;25240;-77
2023/11/26 07:46:23;;;;;;;35.90;16.80;;;;;;;-2.38;74.00;94153.50;106786;1275;25408;-78
2023/11/26 07:48:52;;;;;;;35.20;18.20;;;;;;;-2.29;73.73;94154.95;106785;1275;23856;-77
2023/11/26 07:51:20;;;;;;;22.50;12.20;;;;;;;-2.20;73.41;94157.42;106683;1275;22635;-76
2023/11/26 07:53:48;;;;;;;28.20;17.30;;;;;;;-2.14;71.87;94164.52;106735;1275;25249;-77
2023/11/26 07:56:16;;;;;;;29.80;16.40;;;;;;;-2.12;70.63;94165.56;106833;1273;23010;-77
2023/11/26 07:58:45;;;;;;;17.20;9.20;;;;;;;-2.10;70.50;94168.35;106764;1275;25535;-77
2023/11/26 08:01:14;;;;;;;22.30;12.80;;;;;;;-2.05;70.43;94173.02;106835;1275;22521;-77
2023/11/26 08:03:42;;;;;;;11.40;6.80;;;;;;;-2.00;70.45;94168.40;106571;1275;25300;-77
2023/11/26 08:06:14;;;;;;;15.30;7.40;;;;;;;-1.92;70.43;94171.90;106599;1275;25361;-76
2023/11/26 08:08:43;;;;;;;13.70;7.10;;;;;;;-1.84;69.57;94171.95;106862;1275;25359;-77
2023/11/26 08:11:14;;;;;;;12.50;7.90;;;;;;;-1.76;69.94;94173.88;106999;1275;25335;-76
2023/11/26 08:13:42;;;;;;;11.30;5.80;;;;;;;-1.67;69.53;94170.66;106796;1275;24219;-77
2023/11/26 08:16:13;;;;;;;12.10;5.90;;;;;;;-1.62;69.60;94176.55;106790;1275;25259;-77
2023/11/26 08:18:42;;;;;;;13.60;5.90;;;;;;;-1.58;68.14;94176.91;106734;1275;22539;-77
2023/11/26 08:21:10;;;;;;;12.30;6.50;;;;;;;-1.53;68.52;94173.14;106679;1275;22724;-77
2023/11/26 08:23:50;;;;;;;11.00;6.40;;;;;;;-1.48;68.10;94173.34;106605;1275;25249;-77
2023/11/26 08:26:22;;;;;;;15.00;7.00;;;;;;;-1.46;68.16;94176.10;106649;1275;24269;-77
2023/11/26 08:28:51;;;;;;;11.00;5.80;;;;;;;-1.42;67.79;94178.36;106740;1275;22677;-77
2023/11/26 08:31:22;;;;;;;14.30;7.80;;;;;;;-1.41;67.58;94178.71;106752;1275;22907;-77
2023/11/26 08:33:50;;;;;;;11.50;6.20;;;;;;;-1.41;67.47;94182.33;106653;1275;22527;-77
2023/11/26 08:36:19;;;;;;;16.60;8.60;;;;;;;-1.43;67.35;94190.09;106713;1275;22537;-77
2023/11/26 08:38:48;;;;;;;10.30;6.50;;;;;;;-1.43;67.27;94193.54;106784;1275;25254;-77
2023/11/26 08:41:21;;;;;;;10.70;5.80;;;;;;;-1.40;67.35;94195.45;106771;1275;24228;-77
2023/11/26 08:43:50;;;;;;;9.90;5.20;;;;;;;-1.43;66.90;94198.02;106763;1275;24377;-77
2023/11/26 08:46:21;;;;;;;9.60;5.70;;;;;;;-1.45;66.93;94197.66;106679;1275;22748;-77
2023/11/26 08:48:52;;;;;;;8.30;4.40;;;;;;;-1.47;66.73;94201.78;106765;1275;24372;-77
2023/11/26 08:51:22;;;;;;;8.50;4.90;;;;;;;-1.53;67.11;94201.94;106762;1275;22663;-77
2023/11/26 08:53:50;;;;;;;9.00;4.90;;;;;;;-1.52;67.58;94205.39;106588;1275;24379;-77
2023/11/26 08:56:19;;;;;;;10.90;5.50;;;;;;;-1.49;67.62;94208.16;106692;1275;22560;-77
2023/11/26 08:58:47;;;;;;;9.90;4.90;;;;;;;-1.49;67.49;94210.58;106797;1275;22526;-77
2023/11/26 09:01:15;;;;;;;8.50;4.70;;;;;;;-1.50;66.98;94215.24;106695;1275;25245;-76
2023/11/26 09:03:44;;;;;;;5.90;4.00;;;;;;;-1.48;67.45;94212.65;106596;1275;25309;-77
2023/11/26 09:06:13;;;;;;;4.50;2.50;;;;;;;-1.53;66.97;94218.49;106613;1275;26209;-77
2023/11/26 09:08:41;;;;;;;6.70;4.50;;;;;;;-1.50;67.15;94219.54;106709;1275;24291;-77
2023/11/26 09:11:09;;;;;;;8.00;4.60;;;;;;;-1.48;67.38;94221.80;106749;1275;24343;-76
2023/11/26 09:13:37;;;;;;;8.20;4.80;;;;;;;-1.45;67.66;94223.88;106795;1275;22521;-77
2023/11/26 09:16:06;;;;;;;5.40;3.50;;;;;;;-1.42;67.46;94225.61;106674;1275;22527;-77
2023/11/26 09:18:37;;;;;;;5.60;3.10;;;;;;;-1.40;67.76;94226.48;106670;1275;22546;-77
2023/11/26 09:21:06;;;;;;;6.80;3.70;;;;;;;-1.35;67.99;94228.57;106711;1275;22523;-77
2023/11/26 09:23:34;;;;;;;6.80;4.20;;;;;;;-1.37;67.21;94231.17;106534;1275;25354;-77
2023/11/26 09:26:04;;;;;;;11.50;6.30;;;;;;;-1.41;67.20;94234.77;106616;1275;24283;-76
2023/11/26 09:28:32;;;;;;;9.00;4.50;;;;;;;-1.44;67.80;94236.64;106836;1275;25290;-77
2023/11/26 09:31:03;;;;;;;11.10;6.00;;;;;;;-1.45;68.16;94238.88;106550;1275;24222;-77
2023/11/26 09:33:32;;;;;;;12.50;6.30;;;;;;;-1.43;68.78;94237.86;106738;1275;22627;-77
2023/11/26 09:36:03;;;;;;;9.60;5.20;;;;;;;-1.47;68.78;94243.52;106556;1275;24235;-77
2023/11/26 09:38:31;;;;;;;8.60;4.70;;;;;;;-1.53;69.63;94244.54;106719;1275;24240;-77
2023/11/26 09:41:00;;;;;;;9.60;4.80;;;;;;;-1.56;69.98;94241.41;106646;1270;23075;-77
2023/11/26 09:43:33;;;;;;;5.70;3.80;;;;;;;-1.60;71.26;94243.63;106653;1275;25411;-77
2023/11/26 09:46:04;;;;;;;9.20;4.50;;;;;;;-1.66;71.41;94242.20;106695;1275;22542;-77
2023/11/26 09:48:32;;;;;;;5.70;3.50;;;;;;;-1.74;72.08;94243.53;106762;1275;22531;-77
2023/11/26 09:51:04;;;;;;;7.90;3.80;;;;;;;-1.78;72.74;94252.64;106696;1275;22534;-77
2023/11/26 09:53:34;;;;;;;12.50;7.30;;;;;;;-1.79;73.01;94254.52;107018;1275;22520;-77
2023/11/26 09:56:04;;;;;;;6.00;3.70;;;;;;;-1.82;73.79;94253.30;106751;1275;22530;-77
2023/11/26 09:58:39;;;;;;;8.80;4.80;;;;;;;-1.82;74.23;94255.90;106739;1275;24231;-77
2023/11/26 10:01:09;;;;;;;72.00;38.40;;;;;;;-1.82;74.12;94252.77;106679;1275;22521;-76
2023/11/26 10:04:04;;;;;;;12.20;7.20;;;;;;;-1.82;74.59;94255.38;106679;1275;24244;-77
2023/11/26 10:06:33;;;;;;;12.30;8.20;;;;;;;-1.82;75.83;94260.04;106607;1275;23962;-77
2023/11/26 10:09:18;;;;;;;9.60;6.10;;;;;;;-1.83;76.31;94258.98;106602;1275;22608;-77
2023/11/26 10:11:48;;;;;;;6.50;4.30;;;;;;;-1.90;77.29;94260.49;106592;1275;22527;-76
2023/11/26 10:14:19;;;;;;;6.40;3.90;;;;;;;-1.93;77.09;94259.95;106729;1275;22791;-77
2023/11/26 10:16:48;;;;;;;7.60;4.80;;;;;;;-1.95;77.55;94266.14;106710;1275;22539;-77
2023/11/26 10:19:24;;;;;;;8.00;5.20;;;;;;;-1.95;77.70;94263.72;106493;1275;25369;-77
2023/11/26 10:21:54;;;;;;;7.30;4.40;;;;;;;-1.89;77.23;94269.45;106729;1275;22520;-76
2023/11/26 10:24:26;;;;;;;6.10;4.00;;;;;;;-1.86;76.02;94273.80;106787;1275;22637;-76
2023/11/26 10:26:57;;;;;;;7.30;4.00;;;;;;;-1.88;76.11;94270.52;106752;1275;22527;-76
2023/11/26 10:29:32;;;;;;;10.20;5.90;;;;;;;-1.86;75.68;94267.59;106711;1275;25358;-77
2023/11/26 10:32:06;;;;;;;8.60;4.80;;;;;;;-1.84;75.69;94266.58;106702;1275;24227;-77
2023/11/26 10:34:35;;;;;;;8.70;4.90;;;;;;;-1.80;75.82;94269.69;106531;1275;22618;-76
2023/11/26 10:37:19;;;;;;;5.80;4.00;;;;;;;-1.78;74.72;94269.89;106836;1275;24902;-76
2023/11/26 10:39:56;;;;;;;6.50;3.60;;;;;;;-1.80;73.74;94271.26;106727;1271;22934;-77
2023/11/26 10:42:28;;;;;;;4.30;3.00;;;;;;;-1.84;73.51;94277.60;106787;1275;26652;-77
2023/11/26 10:44:58;;;;;;;6.60;4.30;;;;;;;-1.86;73.25;94273.80;106796;1275;24291;-76
2023/11/26 10:47:29;;;;;;;5.10;3.40;;;;;;;-1.82;73.64;94269.16;106734;1275;25310;-77
2023/11/26 10:50:02;;;;;;;6.30;4.10;;;;;;;-1.83;73.41;94276.92;106620;1275;22569;-76
2023/11/26 10:52:38;;;;;;;7.10;4.80;;;;;;;-1.81;73.51;94273.31;106731;1275;24476;-77
2023/11/26 10:55:29;;;;;;;6.50;4.20;;;;;;;-1.76;73.68;94277.48;106697;1275;22633;-77
2023/11/26 10:58:15;;;;;;;8.10;4.40;;;;;;;-1.77;73.44;94279.19;106767;1275;25310;-76
2023/11/26 11:00:48;;;;;;;8.20;5.00;;;;;;;-1.82;73.28;94276.41;106717;1275;24272;-77
2023/11/26 11:03:17;;;;;;;8.00;3.90;;;;;;;-1.81;73.73;94284.34;106588;1275;24367;-76
2023/11/26 11:05:47;;;;;;;7.40;4.50;;;;;;;-1.85;73.62;94282.77;106793;1275;22527;-76
2023/11/26 11:08:16;;;;;;;7.20;4.90;;;;;;;-1.85;73.69;94279.66;106695;1275;23953;-77
2023/11/26 11:10:57;;;;;;;6.60;3.20;;;;;;;-1.88;73.45;94280.50;106620;1275;22533;-76
2023/11/26 11:13:28;;;;;;;8.00;4.40;;;;;;;-1.87;73.30;94279.64;106725;1275;23913;-77
2023/11/26 11:15:57;;;;;;;7.70;3.80;;;;;;;-1.78;73.73;94280.05;106762;1261;25712;-77
2023/11/26 11:18:28;;;;;;;6.10;3.20;;;;;;;-1.70;73.17;94272.69;106744;1275;22534;-76
2023/11/26 11:21:05;;;;;;;7.00;3.50;;;;;;;-1.65;72.26;94278.08;106767;1275;23448;-77
2023/11/26 11:23:51;;;;;;;9.00;4.50;;;;;;;-1.66;72.63;94275.66;106761;1275;22785;-77
2023/11/26 11:26:22;;;;;;;9.30;4.50;;;;;;;-1.64;73.14;94274.98;106756;1275;24288;-76
2023/11/26 11:28:55;;;;;;;7.40;3.50;;;;;;;-1.69;72.49;94277.02;106746;1275;25358;-76
2023/11/26 11:31:58;;;;;;;7.70;4.90;;;;;;;-1.76;72.45;94278.70;106627;1275;24356;-77
2023/11/26 11:34:31;;;;;;;10.30;5.40;;;;;;;-1.94;72.42;94278.23;106805;1275;22523;-77
2023/11/26 11:37:02;;;;;;;7.10;3.90;;;;;;;-2.00;72.54;94285.75;106711;1275;25475;-76
2023/11/26 11:39:51;;;;;;;6.30;3.60;;;;;;;-2.04;72.61;94291.75;106715;1275;22648;-76